createdAt,value
2023-01-20T00:01:43.254Z,95.80
2023-01-20T00:04:12.749Z,95.71
2023-01-20T00:06:42.594Z,95.80
2023-01-20T00:09:14.658Z,96.06
2023-01-20T00:11:41.403Z,95.47
2023-01-20T00:14:10.509Z,96.08
2023-01-20T00:16:37.090Z,95.72
2023-01-20T00:19:03.650Z,96.14
2023-01-20T00:21:30.344Z,95.98
2023-01-20T00:23:56.872Z,96.23
2023-01-20T00:26:25.439Z,95.79
2023-01-20T00:28:57.514Z,96.00
2023-01-20T00:31:24.293Z,96.26
2023-01-20T00:33:55.336Z,95.87
2023-01-20T00:36:25.406Z,96.01
2023-01-20T00:38:52.467Z,96.00
2023-01-20T00:41:19.799Z,96.14
2023-01-20T00:43:46.590Z,96.50
2023-01-20T00:46:13.849Z,96.43
2023-01-20T00:48:40.804Z,96.02
2023-01-20T00:51:08.882Z,96.47
2023-01-20T00:53:35.551Z,95.98
2023-01-20T00:56:02.304Z,96.06
2023-01-20T00:58:28.977Z,96.27
2023-01-20T01:00:56.144Z,96.28
2023-01-20T01:03:22.884Z,96.21
2023-01-20T01:05:49.877Z,96.23
2023-01-20T01:08:16.494Z,96.42
2023-01-20T01:10:42.972Z,95.96
2023-01-20T01:13:12.538Z,96.17
2023-01-20T01:15:39.167Z,95.98
2023-01-20T01:18:05.743Z,96.23
2023-01-20T01:20:32.503Z,95.88
2023-01-20T01:22:59.024Z,96.16
2023-01-20T01:25:25.766Z,96.28
2023-01-20T01:27:52.384Z,96.09
2023-01-20T01:30:19.168Z,96.06
2023-01-20T01:32:45.648Z,96.31
2023-01-20T01:35:12.683Z,96.45
2023-01-20T01:37:41.775Z,96.33
2023-01-20T01:40:09.426Z,96.25
2023-01-20T01:42:36.260Z,96.34
2023-01-20T01:45:12.037Z,96.58
2023-01-20T01:47:46.640Z,96.60
2023-01-20T01:50:19.145Z,96.50
2023-01-20T01:52:50.155Z,96.60
2023-01-20T01:55:19.104Z,96.84
2023-01-20T01:57:47.570Z,96.93
2023-01-20T02:00:14.515Z,96.87
2023-01-20T02:02:43.764Z,96.90
2023-01-20T02:05:13.848Z,96.90
2023-01-20T02:07:44.092Z,97.01
2023-01-20T02:10:11.551Z,96.76
2023-01-20T02:12:39.113Z,96.87
2023-01-20T02:15:06.393Z,96.58
2023-01-20T02:17:40.086Z,96.93
2023-01-20T02:20:24.882Z,96.78
2023-01-20T02:23:12.718Z,97.16
2023-01-20T02:26:07.357Z,97.17
2023-01-20T02:28:37.094Z,97.41
2023-01-20T02:31:14.806Z,97.19
2023-01-20T02:33:57.843Z,97.30
2023-01-20T02:36:34.777Z,96.87
2023-01-20T02:39:13.712Z,97.49
2023-01-20T02:42:23.420Z,97.49
2023-01-20T02:44:55.714Z,97.49
2023-01-20T02:47:35.722Z,97.16
2023-01-20T02:50:14.310Z,97.20
2023-01-20T02:52:46.075Z,97.16
2023-01-20T02:55:22.509Z,97.52
2023-01-20T02:58:00.827Z,98.06
2023-01-20T03:00:34.487Z,97.76
2023-01-20T03:03:06.066Z,97.84
2023-01-20T03:05:37.840Z,98.19
2023-01-20T03:08:08.820Z,98.17
2023-01-20T03:10:37.686Z,98.58
2023-01-20T03:13:32.629Z,98.42
2023-01-20T03:16:13.799Z,98.58
2023-01-20T03:18:40.590Z,98.89
2023-01-20T03:21:10.084Z,98.89
2023-01-20T03:23:42.890Z,98.46
2023-01-20T03:26:13.477Z,98.61
2023-01-20T03:28:50.636Z,98.84
2023-01-20T03:31:29.905Z,98.83
2023-01-20T03:33:59.939Z,98.86
2023-01-20T03:36:29.856Z,98.86
2023-01-20T03:38:58.529Z,98.47
2023-01-20T03:41:32.658Z,98.43
2023-01-20T03:44:21.469Z,98.57
2023-01-20T03:47:11.983Z,98.64
2023-01-20T03:49:51.711Z,98.41
2023-01-20T03:52:47.617Z,98.73
2023-01-20T03:55:26.629Z,98.91
2023-01-20T03:58:04.753Z,98.37
2023-01-20T04:00:37.665Z,98.50
2023-01-20T04:03:14.063Z,98.56
2023-01-20T04:05:43.093Z,98.34
2023-01-20T04:08:12.330Z,98.67
2023-01-20T04:10:42.781Z,98.49
2023-01-20T04:13:09.753Z,98.25
2023-01-20T04:15:40.406Z,98.84
2023-01-20T04:18:18.292Z,98.39
2023-01-20T04:20:53.499Z,98.63
2023-01-20T04:23:34.847Z,98.78
2023-01-20T04:26:03.952Z,98.89
2023-01-20T04:28:31.470Z,98.85
2023-01-20T04:30:58.190Z,98.79
2023-01-20T04:33:25.100Z,98.78
2023-01-20T04:35:51.538Z,99.20
2023-01-20T04:38:17.967Z,99.14
2023-01-20T04:40:45.214Z,99.28
2023-01-20T04:43:12.513Z,99.05
2023-01-20T04:45:41.325Z,98.92
2023-01-20T04:48:08.807Z,99.27
2023-01-20T04:50:40.453Z,98.94
2023-01-20T04:53:09.240Z,99.23
2023-01-20T04:55:35.755Z,99.28
2023-01-20T04:58:02.556Z,99.29
2023-01-20T05:00:29.058Z,98.94
2023-01-20T05:02:59.057Z,98.99
2023-01-20T05:05:25.699Z,99.02
2023-01-20T05:07:53.567Z,98.92
2023-01-20T05:10:20.917Z,98.70
2023-01-20T05:12:47.816Z,98.96
2023-01-20T05:15:15.016Z,99.10
2023-01-20T05:17:42.358Z,98.64
2023-01-20T05:20:10.052Z,98.63
2023-01-20T05:22:36.620Z,98.69
2023-01-20T05:25:03.151Z,99.19
2023-01-20T05:27:30.435Z,99.19
2023-01-20T05:29:56.911Z,99.18
2023-01-20T05:32:23.767Z,99.10
2023-01-20T05:34:50.413Z,99.05
2023-01-20T05:37:18.392Z,98.95
2023-01-20T05:39:45.120Z,98.90
2023-01-20T05:42:11.612Z,99.24
2023-01-20T05:44:38.122Z,99.05
2023-01-20T05:47:05.111Z,99.25
2023-01-20T05:49:31.667Z,99.03
2023-01-20T05:51:58.145Z,98.97
2023-01-20T05:54:26.218Z,98.70
2023-01-20T05:56:53.013Z,98.80
2023-01-20T05:59:19.888Z,99.06
2023-01-20T06:01:46.395Z,98.96
2023-01-20T06:04:15.139Z,99.08
2023-01-20T06:06:42.293Z,99.00
2023-01-20T06:09:10.901Z,98.82
2023-01-20T06:11:37.351Z,99.07
2023-01-20T06:14:04.217Z,99.03
2023-01-20T06:16:30.870Z,99.12
2023-01-20T06:18:57.644Z,98.83
2023-01-20T06:21:24.982Z,98.95
2023-01-20T06:23:53.476Z,98.83
2023-01-20T06:26:20.390Z,98.65
2023-01-20T06:28:46.875Z,98.85
2023-01-20T06:31:16.238Z,98.49
2023-01-20T06:33:43.526Z,99.06
2023-01-20T06:36:14.703Z,98.78
2023-01-20T06:38:41.463Z,98.62
2023-01-20T06:41:15.233Z,98.73
2023-01-20T06:43:42.110Z,98.87
2023-01-20T06:46:11.250Z,99.00
2023-01-20T06:48:37.837Z,99.20
2023-01-20T06:51:07.375Z,99.39
2023-01-20T06:53:34.952Z,99.37
2023-01-20T06:56:02.479Z,99.13
2023-01-20T06:58:31.094Z,99.10
2023-01-20T07:00:59.261Z,99.08
2023-01-20T07:03:26.000Z,98.86
2023-01-20T07:06:01.477Z,99.14
2023-01-20T07:08:28.979Z,98.76
2023-01-20T07:10:56.074Z,99.07
2023-01-20T07:13:22.959Z,98.67
2023-01-20T07:15:49.849Z,98.85
2023-01-20T07:18:17.093Z,98.57
2023-01-20T07:20:44.188Z,98.51
2023-01-20T07:23:10.854Z,98.55
2023-01-20T07:25:38.504Z,98.42
2023-01-20T07:28:05.603Z,98.42
2023-01-20T07:30:32.370Z,98.26
2023-01-20T07:32:58.843Z,98.19
2023-01-20T07:35:25.602Z,98.53
2023-01-20T07:37:52.560Z,97.86
2023-01-20T07:40:22.667Z,98.42
2023-01-20T07:42:50.089Z,98.18
2023-01-20T07:45:16.989Z,97.65
2023-01-20T07:47:51.240Z,97.72
2023-01-20T07:50:25.657Z,97.90
2023-01-20T07:52:56.301Z,97.50
2023-01-20T07:55:25.010Z,97.77
2023-01-20T07:57:56.237Z,97.60
2023-01-20T08:00:22.911Z,97.84
2023-01-20T08:02:52.484Z,97.72
2023-01-20T08:05:19.036Z,97.96
2023-01-20T08:07:50.307Z,97.65
2023-01-20T08:10:17.075Z,97.92
2023-01-20T08:12:43.664Z,98.03
2023-01-20T08:15:10.948Z,97.59
2023-01-20T08:17:37.578Z,97.51
2023-01-20T08:20:04.733Z,97.70
2023-01-20T08:22:31.160Z,97.26
2023-01-20T08:24:57.623Z,97.22
2023-01-20T08:27:24.128Z,96.91
2023-01-20T08:29:50.732Z,96.82
2023-01-20T08:32:17.218Z,96.58
2023-01-20T08:34:43.671Z,96.86
2023-01-20T08:37:10.239Z,96.47
2023-01-20T08:39:36.826Z,96.56
2023-01-20T08:42:03.472Z,96.21
2023-01-20T08:44:30.241Z,96.66
2023-01-20T08:46:59.472Z,96.49
2023-01-20T08:49:26.127Z,96.41
2023-01-20T08:51:52.661Z,96.50
2023-01-20T08:54:19.829Z,96.49
2023-01-20T08:56:50.810Z,96.12
2023-01-20T08:59:17.937Z,96.21
2023-01-20T09:01:45.581Z,96.39
2023-01-20T09:04:12.678Z,96.02
2023-01-20T09:06:57.194Z,95.66
2023-01-20T09:09:23.884Z,95.35
2023-01-20T09:11:53.680Z,95.42
2023-01-20T09:14:22.548Z,95.10
2023-01-20T09:16:49.626Z,95.21
2023-01-20T09:19:16.501Z,95.15
2023-01-20T09:21:44.382Z,95.10
2023-01-20T09:24:11.160Z,94.75
2023-01-20T09:26:40.240Z,94.70
2023-01-20T09:29:12.855Z,94.22
2023-01-20T09:31:54.073Z,94.27
2023-01-20T09:34:24.918Z,94.76
2023-01-20T09:37:18.554Z,94.75
2023-01-20T09:40:04.746Z,94.06
2023-01-20T09:43:23.820Z,94.33
2023-01-20T09:45:59.571Z,94.44
2023-01-20T09:49:19.774Z,93.65
2023-01-20T09:52:19.926Z,93.65
2023-01-20T09:55:17.126Z,93.52
2023-01-20T09:57:53.463Z,93.88
2023-01-20T10:00:23.867Z,94.05
2023-01-20T10:02:55.649Z,94.08
2023-01-20T10:05:32.960Z,93.45
2023-01-20T10:08:10.648Z,93.67
2023-01-20T10:10:45.778Z,92.94
2023-01-20T10:13:18.266Z,93.02
2023-01-20T10:15:52.750Z,93.12
2023-01-20T10:18:35.041Z,92.96
2023-01-20T10:21:11.328Z,93.46
2023-01-20T10:23:52.831Z,93.82
2023-01-20T10:26:28.865Z,93.45
2023-01-20T10:29:01.519Z,92.77
2023-01-20T10:31:33.676Z,92.15
2023-01-20T10:34:08.940Z,92.10
2023-01-20T10:36:35.689Z,92.43
2023-01-20T10:39:10.246Z,92.29
2023-01-20T10:41:45.506Z,92.38
2023-01-20T10:44:14.444Z,91.69
2023-01-20T10:47:16.872Z,91.39
2023-01-20T10:50:02.483Z,92.05
2023-01-20T10:52:46.612Z,91.69
2023-01-20T10:55:47.665Z,90.86
2023-01-20T10:58:18.345Z,91.27
2023-01-20T11:00:45.230Z,91.57
2023-01-20T11:03:17.826Z,91.11
2023-01-20T11:05:46.727Z,91.43
2023-01-20T11:08:29.691Z,91.44
2023-01-20T11:11:09.312Z,90.93
2023-01-20T11:13:35.825Z,90.59
2023-01-20T11:16:36.984Z,90.85
2023-01-20T11:19:07.495Z,90.40
2023-01-20T11:21:36.979Z,90.10
2023-01-20T11:24:34.796Z,89.54
2023-01-20T11:27:14.485Z,89.61
2023-01-20T11:29:46.165Z,90.23
2023-01-20T11:32:37.107Z,89.20
2023-01-20T11:35:24.621Z,89.38
2023-01-20T11:37:51.742Z,90.34
2023-01-20T11:40:19.986Z,88.92
2023-01-20T11:42:48.409Z,89.47
2023-01-20T11:45:25.697Z,89.51
2023-01-20T11:48:16.878Z,89.14
2023-01-20T11:50:56.121Z,88.55
2023-01-20T11:53:31.631Z,88.17
2023-01-20T11:56:00.297Z,87.28
2023-01-20T11:58:48.131Z,88.23
2023-01-20T12:01:23.509Z,88.56
2023-01-20T12:03:59.973Z,88.13
2023-01-20T12:06:30.913Z,87.85
2023-01-20T12:09:10.250Z,87.93
2023-01-20T12:11:42.878Z,88.40
2023-01-20T12:14:22.922Z,88.29
2023-01-20T12:17:05.334Z,87.94
2023-01-20T12:19:53.783Z,88.09
2023-01-20T12:22:34.599Z,88.34
2023-01-20T12:25:14.568Z,88.15
2023-01-20T12:27:46.604Z,88.54
2023-01-20T12:30:43.424Z,88.08
2023-01-20T12:33:26.004Z,88.27
2023-01-20T12:36:24.822Z,88.78
2023-01-20T12:39:25.498Z,88.25
2023-01-20T12:42:10.325Z,88.52
2023-01-20T12:44:48.475Z,88.57
2023-01-20T12:47:45.126Z,88.00
2023-01-20T12:50:29.615Z,87.80
2023-01-20T12:53:42.495Z,88.25
2023-01-20T12:56:27.703Z,87.93
2023-01-20T12:59:20.717Z,88.60
2023-01-20T13:01:57.707Z,88.47
2023-01-20T13:04:33.422Z,88.83
2023-01-20T13:07:00.190Z,88.66
2023-01-20T13:09:36.869Z,88.92
2023-01-20T13:12:30.877Z,88.49
2023-01-20T13:15:19.087Z,88.50
2023-01-20T13:18:04.464Z,88.93
2023-01-20T13:20:31.087Z,88.66
2023-01-20T13:23:03.347Z,88.72
2023-01-20T13:25:30.955Z,88.94
2023-01-20T13:27:58.060Z,89.46
2023-01-20T13:30:50.753Z,88.69
2023-01-20T13:33:32.956Z,88.61
2023-01-20T13:36:20.602Z,89.36
2023-01-20T13:38:49.309Z,88.84
2023-01-20T13:41:52.954Z,89.32
2023-01-20T13:44:35.629Z,89.47
2023-01-20T13:47:03.273Z,89.39
2023-01-20T13:49:53.646Z,89.07
2023-01-20T13:53:03.028Z,88.55
2023-01-20T13:55:41.617Z,89.48
2023-01-20T13:58:28.564Z,89.51
2023-01-20T14:01:03.916Z,89.36
2023-01-20T14:03:35.101Z,89.33
2023-01-20T14:06:01.684Z,89.54
2023-01-20T14:08:52.697Z,89.27
2023-01-20T14:11:24.557Z,89.05
2023-01-20T14:13:54.154Z,89.17
2023-01-20T14:16:26.646Z,89.35
2023-01-20T14:18:55.627Z,89.48
2023-01-20T14:21:25.178Z,89.46
2023-01-20T14:23:52.404Z,89.47
2023-01-20T14:26:30.211Z,89.40
2023-01-20T14:29:03.023Z,89.41
2023-01-20T14:31:33.182Z,89.77
2023-01-20T14:34:18.866Z,89.40
2023-01-20T14:36:46.534Z,89.94
2023-01-20T14:39:22.641Z,90.16
2023-01-20T14:41:52.389Z,90.28
2023-01-20T14:44:25.269Z,90.07
2023-01-20T14:46:54.153Z,90.10
2023-01-20T14:49:24.129Z,89.87
2023-01-20T14:51:51.751Z,90.18
2023-01-20T14:54:34.622Z,90.04
2023-01-20T14:57:24.947Z,90.35
2023-01-20T15:00:22.607Z,90.10
2023-01-20T15:03:09.998Z,90.16
2023-01-20T15:05:42.525Z,90.08
2023-01-20T15:08:12.209Z,90.46
2023-01-20T15:10:39.265Z,90.18
2023-01-20T15:13:23.140Z,90.28
2023-01-20T15:15:49.887Z,90.21
2023-01-20T15:18:21.613Z,90.31
2023-01-20T15:20:49.951Z,90.26
2023-01-20T15:23:19.617Z,90.52
2023-01-20T15:25:46.914Z,90.55
2023-01-20T15:28:27.237Z,90.75
2023-01-20T15:30:55.948Z,90.71
2023-01-20T15:33:23.958Z,90.71
2023-01-20T15:35:54.374Z,90.80
2023-01-20T15:38:21.453Z,90.93
2023-01-20T15:40:48.063Z,90.25
2023-01-20T15:43:16.622Z,90.56
2023-01-20T15:45:43.739Z,90.61
2023-01-20T15:48:16.534Z,91.01
2023-01-20T15:50:43.424Z,90.93
2023-01-20T15:53:12.653Z,91.21
2023-01-20T15:55:48.610Z,91.50
2023-01-20T15:58:30.994Z,91.36
2023-01-20T16:00:58.389Z,91.24
2023-01-20T16:03:26.280Z,91.48
2023-01-20T16:05:55.024Z,91.42
2023-01-20T16:08:24.929Z,91.17
2023-01-20T16:10:51.392Z,91.22
2023-01-20T16:13:17.886Z,91.75
2023-01-20T16:15:44.677Z,91.42
2023-01-20T16:18:17.403Z,91.88
2023-01-20T16:20:45.826Z,91.34
2023-01-20T16:23:13.372Z,91.63
2023-01-20T16:25:40.449Z,91.81
2023-01-20T16:28:13.462Z,91.48
2023-01-20T16:30:41.467Z,91.45
2023-01-20T16:33:20.220Z,91.93
2023-01-20T16:35:47.540Z,91.69
2023-01-20T16:38:16.315Z,91.72
2023-01-20T16:40:53.609Z,92.04
2023-01-20T16:43:21.666Z,92.08
2023-01-20T16:45:54.136Z,92.02
2023-01-20T16:48:25.916Z,91.94
2023-01-20T16:50:52.868Z,92.13
2023-01-20T16:53:20.177Z,92.15
2023-01-20T16:55:48.094Z,92.07
2023-01-20T16:58:16.330Z,92.62
2023-01-20T17:00:43.318Z,92.41
2023-01-20T17:03:12.504Z,92.55
2023-01-20T17:05:39.213Z,92.68
2023-01-20T17:08:05.769Z,92.80
2023-01-20T17:10:32.827Z,92.24
2023-01-20T17:13:02.604Z,92.21
2023-01-20T17:15:29.308Z,92.50
2023-01-20T17:17:58.369Z,92.51
2023-01-20T17:20:30.836Z,92.65
2023-01-20T17:22:57.377Z,92.64
2023-01-20T17:25:24.795Z,92.67
2023-01-20T17:27:51.292Z,92.88
2023-01-20T17:30:18.199Z,93.00
2023-01-20T17:32:48.710Z,93.03
2023-01-20T17:35:16.045Z,92.60
2023-01-20T17:37:42.944Z,92.82
2023-01-20T17:40:11.263Z,93.03
2023-01-20T17:42:37.999Z,93.06
2023-01-20T17:45:05.127Z,92.52
2023-01-20T17:47:31.690Z,92.77
2023-01-20T17:49:58.537Z,93.10
2023-01-20T17:52:25.399Z,92.81
2023-01-20T17:54:51.888Z,92.70
2023-01-20T17:57:18.630Z,92.76
2023-01-20T17:59:46.180Z,93.06
2023-01-20T18:02:13.925Z,93.12
2023-01-20T18:04:40.390Z,93.14
2023-01-20T18:07:07.257Z,93.00
2023-01-20T18:09:33.831Z,93.29
2023-01-20T18:12:00.318Z,93.14
2023-01-20T18:14:26.913Z,93.15
2023-01-20T18:16:54.523Z,93.14
2023-01-20T18:19:21.357Z,93.29
2023-01-20T18:21:47.915Z,93.33
2023-01-20T18:24:14.887Z,93.25
2023-01-20T18:26:45.127Z,93.43
2023-01-20T18:29:16.607Z,93.58
2023-01-20T18:31:44.976Z,93.35
2023-01-20T18:34:15.619Z,93.46
2023-01-20T18:36:46.848Z,93.58
2023-01-20T18:39:18.267Z,93.82
2023-01-20T18:41:46.353Z,93.39
2023-01-20T18:44:12.896Z,93.85
2023-01-20T18:46:40.128Z,93.75
2023-01-20T18:49:09.590Z,93.64
2023-01-20T18:51:36.438Z,94.00
2023-01-20T18:54:07.526Z,93.96
2023-01-20T18:56:34.648Z,93.67
2023-01-20T18:59:01.435Z,94.02
2023-01-20T19:01:46.251Z,94.11
2023-01-20T19:04:13.620Z,93.92
2023-01-20T19:06:42.533Z,93.95
2023-01-20T19:09:10.450Z,93.85
2023-01-20T19:11:39.729Z,94.20
2023-01-20T19:14:08.767Z,94.22
2023-01-20T19:16:42.306Z,94.10
2023-01-20T19:19:10.813Z,94.33
2023-01-20T19:21:37.458Z,94.28
2023-01-20T19:24:06.056Z,94.21
2023-01-20T19:26:35.539Z,94.47
2023-01-20T19:29:08.429Z,94.15
2023-01-20T19:31:38.594Z,94.40
2023-01-20T19:34:06.967Z,94.17
2023-01-20T19:36:34.546Z,94.49
2023-01-20T19:39:01.379Z,94.31
2023-01-20T19:41:35.853Z,94.59
2023-01-20T19:44:06.479Z,94.60
2023-01-20T19:46:35.383Z,94.60
2023-01-20T19:49:02.769Z,94.58
2023-01-20T19:51:31.275Z,94.54
2023-01-20T19:54:00.704Z,94.62
2023-01-20T19:56:30.420Z,94.61
2023-01-20T19:58:58.017Z,94.26
2023-01-20T20:01:30.510Z,94.33
2023-01-20T20:03:58.723Z,94.70
2023-01-20T20:06:32.600Z,94.63
2023-01-20T20:09:01.774Z,94.38
2023-01-20T20:11:29.670Z,94.74
2023-01-20T20:13:59.016Z,94.36
2023-01-20T20:16:27.687Z,94.36
2023-01-20T20:18:55.658Z,94.73
2023-01-20T20:21:25.635Z,95.00
2023-01-20T20:23:54.085Z,94.52
2023-01-20T20:26:22.695Z,94.97
2023-01-20T20:28:51.080Z,94.99
2023-01-20T20:31:18.453Z,95.26
2023-01-20T20:33:48.783Z,95.46
2023-01-20T20:36:15.748Z,95.38
2023-01-20T20:38:42.543Z,95.28
2023-01-20T20:41:09.714Z,95.06
2023-01-20T20:43:37.238Z,95.17
2023-01-20T20:46:06.770Z,95.14
2023-01-20T20:48:33.910Z,95.10
2023-01-20T20:51:10.948Z,94.98
2023-01-20T20:53:37.493Z,95.19
2023-01-20T20:56:15.767Z,95.14
2023-01-20T20:58:59.803Z,94.95
2023-01-20T21:01:28.698Z,94.88
2023-01-20T21:03:57.465Z,94.94
2023-01-20T21:06:24.593Z,94.83
2023-01-20T21:08:51.148Z,95.18
2023-01-20T21:11:18.603Z,95.38
2023-01-20T21:13:45.199Z,95.04
2023-01-20T21:16:16.668Z,94.99
2023-01-20T21:18:43.468Z,94.98
2023-01-20T21:21:13.012Z,94.92
2023-01-20T21:23:43.645Z,95.12
2023-01-20T21:26:13.518Z,94.97
2023-01-20T21:28:40.624Z,95.02
2023-01-20T21:31:07.715Z,94.91
2023-01-20T21:33:36.210Z,95.18
2023-01-20T21:36:05.030Z,95.29
2023-01-20T21:38:32.182Z,95.17
2023-01-20T21:41:04.681Z,95.30
2023-01-20T21:43:58.689Z,95.14
2023-01-20T21:46:28.250Z,95.31
2023-01-20T21:49:14.601Z,95.17
2023-01-20T21:52:00.009Z,95.04
2023-01-20T21:54:30.874Z,94.66
2023-01-20T21:56:58.636Z,95.24
2023-01-20T21:59:25.651Z,95.12
2023-01-20T22:01:52.752Z,95.05
2023-01-20T22:04:19.941Z,95.10
2023-01-20T22:06:46.518Z,95.16
2023-01-20T22:09:13.614Z,95.24
2023-01-20T22:11:40.464Z,95.04
2023-01-20T22:14:07.018Z,95.18
2023-01-20T22:16:34.009Z,95.42
2023-01-20T22:19:00.597Z,95.38
2023-01-20T22:21:27.161Z,95.11
2023-01-20T22:23:53.974Z,95.45
2023-01-20T22:26:20.527Z,95.47
2023-01-20T22:28:47.006Z,95.17
2023-01-20T22:31:19.841Z,95.16
2023-01-20T22:33:51.733Z,95.16
2023-01-20T22:36:19.706Z,95.53
2023-01-20T22:38:46.599Z,95.61
2023-01-20T22:41:15.247Z,95.71
2023-01-20T22:43:44.389Z,95.51
2023-01-20T22:46:13.705Z,95.25
2023-01-20T22:48:40.972Z,95.58
2023-01-20T22:51:11.656Z,95.73
2023-01-20T22:53:39.295Z,95.72
2023-01-20T22:56:17.305Z,95.44
2023-01-20T22:58:44.959Z,95.78
2023-01-20T23:01:22.543Z,95.78
2023-01-20T23:03:53.943Z,95.87
2023-01-20T23:06:20.707Z,95.54
2023-01-20T23:08:47.312Z,95.85
2023-01-20T23:11:16.366Z,95.73
2023-01-20T23:13:43.366Z,95.95
2023-01-20T23:16:17.496Z,95.90
2023-01-20T23:18:45.934Z,95.69
2023-01-20T23:21:13.708Z,96.35
2023-01-20T23:23:40.367Z,96.39
2023-01-20T23:26:09.381Z,96.74
2023-01-20T23:28:36.058Z,96.59
2023-01-20T23:31:05.175Z,96.81
2023-01-20T23:33:32.710Z,96.53
2023-01-20T23:36:06.783Z,96.32
2023-01-20T23:38:33.919Z,96.48
2023-01-20T23:41:00.433Z,96.54
2023-01-20T23:43:26.874Z,96.54
2023-01-20T23:45:57.423Z,96.09
2023-01-20T23:48:25.287Z,96.22
2023-01-20T23:50:51.826Z,96.46
2023-01-20T23:53:18.663Z,96.27
2023-01-20T23:55:45.354Z,96.55
2023-01-20T23:58:11.977Z,96.60
